Aviation Digital Data Service (ADDS)

Output produced by METARs form (0435 UTC 19 February 2019)
found at http://www.aviationweather.gov/metar/data/
 
METAR text: UNTT 190400Z 22008MPS 9999 DRSN FEW021CB M06/M09 Q1011 R21/490137 NOSIG RMK QFE743
Conditions at: UNTT (PLOTNIKOVO/TOMSK, RU) observed 0400 UTC 19 February 2019
Temperature: -6.0°C (21°F)
Dewpoint: -9.0°C (16°F) [RH = 79%]
Pressure (altimeter): 29.85 inches Hg (1011.0 mb)
Winds: from the SW (220 degrees) at 18 MPH (16 knots; 8.2 m/s)
Visibility: 6 or more miles (10+ km)
Ceiling: at least 12,000 feet AGL
Clouds: few clouds at 2100 feet AGL
Weather: DRSN  (low drifting snow)

METAR text: UNTT 190330Z 22008MPS 9999 SCT021CB M05/M09 Q1010 R21/490137 NOSIG RMK QFE743
Conditions at: UNTT (PLOTNIKOVO/TOMSK, RU) observed 0330 UTC 19 February 2019
Temperature: -5.0°C (23°F)
Dewpoint: -9.0°C (16°F) [RH = 73%]
Pressure (altimeter): 29.82 inches Hg (1010.0 mb)
Winds: from the SW (220 degrees) at 18 MPH (16 knots; 8.2 m/s)
Visibility: 6 or more miles (10+ km)
Ceiling: at least 12,000 feet AGL
Clouds: scattered clouds at 2100 feet AGL
Weather: no significant weather observed at this time

METAR text: UNTT 190300Z 23008MPS 9999 SCT023CB M05/M09 Q1010 R21/490137 NOSIG RMK QFE743
Conditions at: UNTT (PLOTNIKOVO/TOMSK, RU) observed 0300 UTC 19 February 2019
Temperature: -5.0°C (23°F)
Dewpoint: -9.0°C (16°F) [RH = 73%]
Pressure (altimeter): 29.82 inches Hg (1010.0 mb)
Winds: from the SW (230 degrees) at 18 MPH (16 knots; 8.2 m/s)
Visibility: 6 or more miles (10+ km)
Ceiling: at least 12,000 feet AGL
Clouds: scattered clouds at 2300 feet AGL
Weather: no significant weather observed at this time

METAR text: UNTT 190230Z 21008MPS 9999 -SHSN SCT020CB M04/M07 Q1010 R21/490137 NOSIG RMK QFE742
Conditions at: UNTT (PLOTNIKOVO/TOMSK, RU) observed 0230 UTC 19 February 2019
Temperature: -4.0°C (25°F)
Dewpoint: -7.0°C (19°F) [RH = 80%]
Pressure (altimeter): 29.82 inches Hg (1010.0 mb)
Winds: from the SSW (210 degrees) at 18 MPH (16 knots; 8.2 m/s)
Visibility: 6 or more miles (10+ km)
Ceiling: at least 12,000 feet AGL
Clouds: scattered clouds at 2000 feet AGL
Weather: -SHSN  (light snow showers)

METAR text: UNTT 190200Z 21007MPS 6000 -SHSN SCT015CB M04/M06 Q1009 R21/490137 NOSIG RMK QFE742
Conditions at: UNTT (PLOTNIKOVO/TOMSK, RU) observed 0200 UTC 19 February 2019
Temperature: -4.0°C (25°F)
Dewpoint: -6.0°C (21°F) [RH = 86%]
Pressure (altimeter): 29.79 inches Hg (1009.0 mb)
Winds: from the SSW (210 degrees) at 16 MPH (14 knots; 7.2 m/s)
Visibility: 4 miles ( 6 km)
Ceiling: at least 12,000 feet AGL
Clouds: scattered clouds at 1500 feet AGL
Weather: -SHSN  (light snow showers)

METAR text: UNTT 190130Z 21007MPS 9999 SCT014CB M04/M06 Q1008 R21/490137 NOSIG RMK QFE741
Conditions at: UNTT (PLOTNIKOVO/TOMSK, RU) observed 0130 UTC 19 February 2019
Temperature: -4.0°C (25°F)
Dewpoint: -6.0°C (21°F) [RH = 86%]
Pressure (altimeter): 29.76 inches Hg (1008.0 mb)
Winds: from the SSW (210 degrees) at 16 MPH (14 knots; 7.2 m/s)
Visibility: 6 or more miles (10+ km)
Ceiling: at least 12,000 feet AGL
Clouds: scattered clouds at 1400 feet AGL
Weather: no significant weather observed at this time

METAR text: UNTT 190100Z 21007MPS 9999 SCT014CB M04/M06 Q1008 R21/490137 NOSIG RMK QFE741
Conditions at: UNTT (PLOTNIKOVO/TOMSK, RU) observed 0100 UTC 19 February 2019
Temperature: -4.0°C (25°F)
Dewpoint: -6.0°C (21°F) [RH = 86%]
Pressure (altimeter): 29.76 inches Hg (1008.0 mb)
Winds: from the SSW (210 degrees) at 16 MPH (14 knots; 7.2 m/s)
Visibility: 6 or more miles (10+ km)
Ceiling: at least 12,000 feet AGL
Clouds: scattered clouds at 1400 feet AGL
Weather: no significant weather observed at this time

METAR text: UNTT 190030Z 21007MPS 9999 -SHSN SCT010 BKN020CB M04/M06 Q1007 R21/490137 NOSIG RMK QFE741
Conditions at: UNTT (PLOTNIKOVO/TOMSK, RU) observed 0030 UTC 19 February 2019
Temperature: -4.0°C (25°F)
Dewpoint: -6.0°C (21°F) [RH = 86%]
Pressure (altimeter): 29.73 inches Hg (1007.0 mb)
Winds: from the SSW (210 degrees) at 16 MPH (14 knots; 7.2 m/s)
Visibility: 6 or more miles (10+ km)
Ceiling: 2000 feet AGL
Clouds: scattered clouds at 1000 feet AGL
broken clouds at 2000 feet AGL
Weather: -SHSN  (light snow showers)

METAR text: UNTT 190000Z 22007MPS 5000 -SHSN SCT009 BKN019CB M04/M06 Q1007 R21/490137 NOSIG RMK QFE740
Conditions at: UNTT (PLOTNIKOVO/TOMSK, RU) observed 0000 UTC 19 February 2019
Temperature: -4.0°C (25°F)
Dewpoint: -6.0°C (21°F) [RH = 86%]
Pressure (altimeter): 29.73 inches Hg (1007.0 mb)
Winds: from the SW (220 degrees) at 16 MPH (14 knots; 7.2 m/s)
Visibility: 3 miles ( 5 km)
Ceiling: 1900 feet AGL
Clouds: scattered clouds at 900 feet AGL
broken clouds at 1900 feet AGL
Weather: -SHSN  (light snow showers)

METAR text: UNTT 182330Z 21006MPS 8000 -SHSN SCT010 BKN020CB M04/M05 Q1007 R21/490137 NOSIG RMK QFE740
Conditions at: UNTT (PLOTNIKOVO/TOMSK, RU) observed 2330 UTC 18 February 2019
Temperature: -4.0°C (25°F)
Dewpoint: -5.0°C (23°F) [RH = 93%]
Pressure (altimeter): 29.73 inches Hg (1007.0 mb)
Winds: from the SSW (210 degrees) at 14 MPH (12 knots; 6.2 m/s)
Visibility: 5 miles ( 8 km)
Ceiling: 2000 feet AGL
Clouds: scattered clouds at 1000 feet AGL
broken clouds at 2000 feet AGL
Weather: -SHSN  (light snow showers)

METAR text: UNTT 182300Z 21007MPS 4100 -SHSN SCT010 BKN017CB M04/M05 Q1006 R21/490137 NOSIG RMK QFE740
Conditions at: UNTT (PLOTNIKOVO/TOMSK, RU) observed 2300 UTC 18 February 2019
Temperature: -4.0°C (25°F)
Dewpoint: -5.0°C (23°F) [RH = 93%]
Pressure (altimeter): 29.70 inches Hg (1006.0 mb)
Winds: from the SSW (210 degrees) at 16 MPH (14 knots; 7.2 m/s)
Visibility: 2.55 miles (4.10 km)
Ceiling: 1700 feet AGL
Clouds: scattered clouds at 1000 feet AGL
broken clouds at 1700 feet AGL
Weather: -SHSN  (light snow showers)

METAR text: UNTT 182230Z 22006MPS 5000 -SHSN SCT010 BKN018CB M03/M05 Q1006 R21/490137 NOSIG RMK QFE739
Conditions at: UNTT (PLOTNIKOVO/TOMSK, RU) observed 2230 UTC 18 February 2019
Temperature: -3.0°C (27°F)
Dewpoint: -5.0°C (23°F) [RH = 86%]
Pressure (altimeter): 29.70 inches Hg (1006.0 mb)
Winds: from the SW (220 degrees) at 14 MPH (12 knots; 6.2 m/s)
Visibility: 3 miles ( 5 km)
Ceiling: 1800 feet AGL
Clouds: scattered clouds at 1000 feet AGL
broken clouds at 1800 feet AGL
Weather: -SHSN  (light snow showers)

METAR text: UNTT 182200Z 22006MPS 4000 -SHSN SCT011 BKN024CB M03/M05 Q1005 R21/490137 NOSIG RMK QFE739
Conditions at: UNTT (PLOTNIKOVO/TOMSK, RU) observed 2200 UTC 18 February 2019
Temperature: -3.0°C (27°F)
Dewpoint: -5.0°C (23°F) [RH = 86%]
Pressure (altimeter): 29.68 inches Hg (1005.0 mb)
Winds: from the SW (220 degrees) at 14 MPH (12 knots; 6.2 m/s)
Visibility: 2.49 miles (4.01 km)
Ceiling: 2400 feet AGL
Clouds: scattered clouds at 1100 feet AGL
broken clouds at 2400 feet AGL
Weather: -SHSN  (light snow showers)

METAR text: UNTT 182130Z 22006MPS 5000 -SHSN FEW008 BKN018CB M03/M06 Q1005 R21/490137 NOSIG RMK QFE739
Conditions at: UNTT (PLOTNIKOVO/TOMSK, RU) observed 2130 UTC 18 February 2019
Temperature: -3.0°C (27°F)
Dewpoint: -6.0°C (21°F) [RH = 80%]
Pressure (altimeter): 29.68 inches Hg (1005.0 mb)
Winds: from the SW (220 degrees) at 14 MPH (12 knots; 6.2 m/s)
Visibility: 3 miles ( 5 km)
Ceiling: 1800 feet AGL
Clouds: few clouds at 800 feet AGL
broken clouds at 1800 feet AGL
Weather: -SHSN  (light snow showers)

METAR text: UNTT 182100Z 22008MPS 4300 -SHSN FEW008 BKN026CB M03/M05 Q1005 R21/490137 NOSIG RMK QFE739
Conditions at: UNTT (PLOTNIKOVO/TOMSK, RU) observed 2100 UTC 18 February 2019
Temperature: -3.0°C (27°F)
Dewpoint: -5.0°C (23°F) [RH = 86%]
Pressure (altimeter): 29.68 inches Hg (1005.0 mb)
Winds: from the SW (220 degrees) at 18 MPH (16 knots; 8.2 m/s)
Visibility: 2.67 miles (4.30 km)
Ceiling: 2600 feet AGL
Clouds: few clouds at 800 feet AGL
broken clouds at 2600 feet AGL
Weather: -SHSN  (light snow showers)

METAR text: UNTT 182030Z 23008MPS 7000 -SHSN FEW008 BKN018CB M03/M06 Q1004 NOSIG RMK QFE738
Conditions at: UNTT (PLOTNIKOVO/TOMSK, RU) observed 2030 UTC 18 February 2019
Temperature: -3.0°C (27°F)
Dewpoint: -6.0°C (21°F) [RH = 80%]
Pressure (altimeter): 29.65 inches Hg (1004.0 mb)
Winds: from the SW (230 degrees) at 18 MPH (16 knots; 8.2 m/s)
Visibility: 4 miles ( 7 km)
Ceiling: 1800 feet AGL
Clouds: few clouds at 800 feet AGL
broken clouds at 1800 feet AGL
Weather: -SHSN  (light snow showers)

METAR text: UNTT 182000Z 22008G13MPS 9000 -SHSN FEW008 BKN021CB M02/M06 Q1004 NOSIG RMK QFE738
Conditions at: UNTT (PLOTNIKOVO/TOMSK, RU) observed 2000 UTC 18 February 2019
Temperature: -2.0°C (28°F)
Dewpoint: -6.0°C (21°F) [RH = 74%]
Pressure (altimeter): 29.65 inches Hg (1004.0 mb)
Winds: from the SW (220 degrees) at 18 MPH (16 knots; 8.2 m/s)
gusting to 29 MPH (25 knots; 12.9 m/s)
Visibility: 6 miles ( 9 km)
Ceiling: 2100 feet AGL
Clouds: few clouds at 800 feet AGL
broken clouds at 2100 feet AGL
Weather: -SHSN  (light snow showers)

METAR text: UNTT 181900Z 21006MPS 1900 1400N R21/1400U SHSN SCT005 BKN016CB M02/M02 Q1003 NOSIG RMK QFE737
Conditions at: UNTT (PLOTNIKOVO/TOMSK, RU) observed 1900 UTC 18 February 2019
Temperature: -2.0°C (28°F)
Dewpoint: -2.0°C (28°F) [RH = 100%]
Pressure (altimeter): 29.62 inches Hg (1003.0 mb)
Winds: from the SSW (210 degrees) at 14 MPH (12 knots; 6.2 m/s)
Visibility: 1.18 miles (1.90 km)
Ceiling: 1600 feet AGL
Clouds: scattered clouds at 500 feet AGL
broken clouds at 1600 feet AGL
Weather: SHSN  (snow showers)

METAR text: UNTT 181800Z 18005MPS 2100 -SHSN SCT008 BKN021CB M02/M02 Q1002 NOSIG RMK QFE737
Conditions at: UNTT (PLOTNIKOVO/TOMSK, RU) observed 1800 UTC 18 February 2019
Temperature: -2.0°C (28°F)
Dewpoint: -2.0°C (28°F) [RH = 100%]
Pressure (altimeter): 29.59 inches Hg (1002.0 mb)
Winds: from the S (180 degrees) at 12 MPH (10 knots; 5.1 m/s)
Visibility: 1.30 miles (2.09 km)
Ceiling: 2100 feet AGL
Clouds: scattered clouds at 800 feet AGL
broken clouds at 2100 feet AGL
Weather: -SHSN  (light snow showers)

METAR text: UNTT 181700Z 19005MPS 3900 -SHSN SCT019CB BKN039 M02/M03 Q1003 NOSIG RMK QFE737
Conditions at: UNTT (PLOTNIKOVO/TOMSK, RU) observed 1700 UTC 18 February 2019
Temperature: -2.0°C (28°F)
Dewpoint: -3.0°C (27°F) [RH = 93%]
Pressure (altimeter): 29.62 inches Hg (1003.0 mb)
Winds: from the S (190 degrees) at 12 MPH (10 knots; 5.1 m/s)
Visibility: 2.42 miles (3.89 km)
Ceiling: 3900 feet AGL
Clouds: scattered clouds at 1900 feet AGL
broken clouds at 3900 feet AGL
Weather: -SHSN  (light snow showers)

METAR text: UNTT 181600Z 21006MPS 9999 -SHSN SCT021CB BKN044 M01/M03 Q1003 NOSIG RMK QFE737
Conditions at: UNTT (PLOTNIKOVO/TOMSK, RU) observed 1600 UTC 18 February 2019
Temperature: -1.0°C (30°F)
Dewpoint: -3.0°C (27°F) [RH = 86%]
Pressure (altimeter): 29.62 inches Hg (1003.0 mb)
Winds: from the SSW (210 degrees) at 14 MPH (12 knots; 6.2 m/s)
Visibility: 6 or more miles (10+ km)
Ceiling: 4400 feet AGL
Clouds: scattered clouds at 2100 feet AGL
broken clouds at 4400 feet AGL
Weather: -SHSN  (light snow showers)

METAR text: UNTT 181500Z 20005MPS 9000 -SHSN SCT009 BKN020CB M02/M03 Q1002 NOSIG RMK QFE737
Conditions at: UNTT (PLOTNIKOVO/TOMSK, RU) observed 1500 UTC 18 February 2019
Temperature: -2.0°C (28°F)
Dewpoint: -3.0°C (27°F) [RH = 93%]
Pressure (altimeter): 29.59 inches Hg (1002.0 mb)
Winds: from the SSW (200 degrees) at 12 MPH (10 knots; 5.1 m/s)
Visibility: 6 miles ( 9 km)
Ceiling: 2000 feet AGL
Clouds: scattered clouds at 900 feet AGL
broken clouds at 2000 feet AGL
Weather: -SHSN  (light snow showers)

METAR text: UNTT 181400Z 19004MPS 2200 -SHSN SCT008CB M03/M04 Q1002 NOSIG RMK QFE737
Conditions at: UNTT (PLOTNIKOVO/TOMSK, RU) observed 1400 UTC 18 February 2019
Temperature: -3.0°C (27°F)
Dewpoint: -4.0°C (25°F) [RH = 93%]
Pressure (altimeter): 29.59 inches Hg (1002.0 mb)
Winds: from the S (190 degrees) at 9 MPH (8 knots; 4.1 m/s)
Visibility: 1.37 miles (2.20 km)
Ceiling: at least 12,000 feet AGL
Clouds: scattered clouds at 800 feet AGL
Weather: -SHSN  (light snow showers)

METAR text: UNTT 181300Z 19004MPS 4500 -SHSN FEW024CB M03/M05 Q1002 NOSIG RMK QFE737
Conditions at: UNTT (PLOTNIKOVO/TOMSK, RU) observed 1300 UTC 18 February 2019
Temperature: -3.0°C (27°F)
Dewpoint: -5.0°C (23°F) [RH = 86%]
Pressure (altimeter): 29.59 inches Hg (1002.0 mb)
Winds: from the S (190 degrees) at 9 MPH (8 knots; 4.1 m/s)
Visibility: 2.80 miles (4.51 km)
Ceiling: at least 12,000 feet AGL
Clouds: few clouds at 2400 feet AGL
Weather: -SHSN  (light snow showers)

METAR text: UNTT 181200Z 21007MPS 9999 -SN SCT043 M03/M06 Q1002 NOSIG RMK QFE737
Conditions at: UNTT (PLOTNIKOVO/TOMSK, RU) observed 1200 UTC 18 February 2019
Temperature: -3.0°C (27°F)
Dewpoint: -6.0°C (21°F) [RH = 80%]
Pressure (altimeter): 29.59 inches Hg (1002.0 mb)
Winds: from the SSW (210 degrees) at 16 MPH (14 knots; 7.2 m/s)
Visibility: 6 or more miles (10+ km)
Ceiling: at least 12,000 feet AGL
Clouds: scattered clouds at 4300 feet AGL
Weather: -SN  (light snow)

METAR text: UNTT 181100Z 20004MPS 9999 SCT046 M02/M09 Q1002 R21/490137 NOSIG RMK QFE736
Conditions at: UNTT (PLOTNIKOVO/TOMSK, RU) observed 1100 UTC 18 February 2019
Temperature: -2.0°C (28°F)
Dewpoint: -9.0°C (16°F) [RH = 59%]
Pressure (altimeter): 29.59 inches Hg (1002.0 mb)
Winds: from the SSW (200 degrees) at 9 MPH (8 knots; 4.1 m/s)
Visibility: 6 or more miles (10+ km)
Ceiling: at least 12,000 feet AGL
Clouds: scattered clouds at 4600 feet AGL
Weather: no significant weather observed at this time

METAR text: UNTT 181030Z 20004MPS 9999 SCT047 M02/M09 Q1002 R21/490137 NOSIG RMK QFE736
Conditions at: UNTT (PLOTNIKOVO/TOMSK, RU) observed 1030 UTC 18 February 2019
Temperature: -2.0°C (28°F)
Dewpoint: -9.0°C (16°F) [RH = 59%]
Pressure (altimeter): 29.59 inches Hg (1002.0 mb)
Winds: from the SSW (200 degrees) at 9 MPH (8 knots; 4.1 m/s)
Visibility: 6 or more miles (10+ km)
Ceiling: at least 12,000 feet AGL
Clouds: scattered clouds at 4700 feet AGL
Weather: no significant weather observed at this time

METAR text: UNTT 181000Z 20006MPS CAVOK M02/M09 Q1001 R21/490137 NOSIG RMK QFE736
Conditions at: UNTT (PLOTNIKOVO/TOMSK, RU) observed 1000 UTC 18 February 2019
Temperature: -2.0°C (28°F)
Dewpoint: -9.0°C (16°F) [RH = 59%]
Pressure (altimeter): 29.56 inches Hg (1001.0 mb)
Winds: from the SSW (200 degrees) at 14 MPH (12 knots; 6.2 m/s)
Visibility: 6 or more miles (10+ km)
Ceiling: ceiling and visibility are OK
Clouds: unknown
Weather: no significant weather observed at this time

METAR text: UNTT 180930Z 21008MPS CAVOK M02/M09 Q1001 R21/490137 NOSIG RMK QFE736
Conditions at: UNTT (PLOTNIKOVO/TOMSK, RU) observed 0930 UTC 18 February 2019
Temperature: -2.0°C (28°F)
Dewpoint: -9.0°C (16°F) [RH = 59%]
Pressure (altimeter): 29.56 inches Hg (1001.0 mb)
Winds: from the SSW (210 degrees) at 18 MPH (16 knots; 8.2 m/s)
Visibility: 6 or more miles (10+ km)
Ceiling: ceiling and visibility are OK
Clouds: unknown
Weather: no significant weather observed at this time

METAR text: UNTT 180900Z 20006MPS CAVOK M02/M10 Q1001 R21/490137 NOSIG RMK QFE736
Conditions at: UNTT (PLOTNIKOVO/TOMSK, RU) observed 0900 UTC 18 February 2019
Temperature: -2.0°C (28°F)
Dewpoint: -10.0°C (14°F) [RH = 54%]
Pressure (altimeter): 29.56 inches Hg (1001.0 mb)
Winds: from the SSW (200 degrees) at 14 MPH (12 knots; 6.2 m/s)
Visibility: 6 or more miles (10+ km)
Ceiling: ceiling and visibility are OK
Clouds: unknown
Weather: no significant weather observed at this time

METAR text: UNTT 180830Z 21006MPS CAVOK M02/M09 Q1001 R21/490137 NOSIG RMK QFE736
Conditions at: UNTT (PLOTNIKOVO/TOMSK, RU) observed 0830 UTC 18 February 2019
Temperature: -2.0°C (28°F)
Dewpoint: -9.0°C (16°F) [RH = 59%]
Pressure (altimeter): 29.56 inches Hg (1001.0 mb)
Winds: from the SSW (210 degrees) at 14 MPH (12 knots; 6.2 m/s)
Visibility: 6 or more miles (10+ km)
Ceiling: ceiling and visibility are OK
Clouds: unknown
Weather: no significant weather observed at this time

METAR text: UNTT 180800Z 20007MPS CAVOK M02/M10 Q1001 R21/490137 NOSIG RMK QFE736
Conditions at: UNTT (PLOTNIKOVO/TOMSK, RU) observed 0800 UTC 18 February 2019
Temperature: -2.0°C (28°F)
Dewpoint: -10.0°C (14°F) [RH = 54%]
Pressure (altimeter): 29.56 inches Hg (1001.0 mb)
Winds: from the SSW (200 degrees) at 16 MPH (14 knots; 7.2 m/s)
Visibility: 6 or more miles (10+ km)
Ceiling: ceiling and visibility are OK
Clouds: unknown
Weather: no significant weather observed at this time

METAR text: UNTT 180730Z 22007MPS CAVOK M02/M10 Q1001 R21/490137 NOSIG RMK QFE736
Conditions at: UNTT (PLOTNIKOVO/TOMSK, RU) observed 0730 UTC 18 February 2019
Temperature: -2.0°C (28°F)
Dewpoint: -10.0°C (14°F) [RH = 54%]
Pressure (altimeter): 29.56 inches Hg (1001.0 mb)
Winds: from the SW (220 degrees) at 16 MPH (14 knots; 7.2 m/s)
Visibility: 6 or more miles (10+ km)
Ceiling: ceiling and visibility are OK
Clouds: unknown
Weather: no significant weather observed at this time

METAR text: UNTT 180700Z 22007MPS CAVOK M03/M10 Q1001 R21/490137 NOSIG RMK QFE736
Conditions at: UNTT (PLOTNIKOVO/TOMSK, RU) observed 0700 UTC 18 February 2019
Temperature: -3.0°C (27°F)
Dewpoint: -10.0°C (14°F) [RH = 58%]
Pressure (altimeter): 29.56 inches Hg (1001.0 mb)
Winds: from the SW (220 degrees) at 16 MPH (14 knots; 7.2 m/s)
Visibility: 6 or more miles (10+ km)
Ceiling: ceiling and visibility are OK
Clouds: unknown
Weather: no significant weather observed at this time

METAR text: UNTT 180630Z 21008MPS CAVOK M02/M10 Q1001 R21/490137 NOSIG RMK QFE736
Conditions at: UNTT (PLOTNIKOVO/TOMSK, RU) observed 0630 UTC 18 February 2019
Temperature: -2.0°C (28°F)
Dewpoint: -10.0°C (14°F) [RH = 54%]
Pressure (altimeter): 29.56 inches Hg (1001.0 mb)
Winds: from the SSW (210 degrees) at 18 MPH (16 knots; 8.2 m/s)
Visibility: 6 or more miles (10+ km)
Ceiling: ceiling and visibility are OK
Clouds: unknown
Weather: no significant weather observed at this time

METAR text: UNTT 180600Z 21006MPS CAVOK M03/M10 Q1001 R21/490137 NOSIG RMK QFE736
Conditions at: UNTT (PLOTNIKOVO/TOMSK, RU) observed 0600 UTC 18 February 2019
Temperature: -3.0°C (27°F)
Dewpoint: -10.0°C (14°F) [RH = 58%]
Pressure (altimeter): 29.56 inches Hg (1001.0 mb)
Winds: from the SSW (210 degrees) at 14 MPH (12 knots; 6.2 m/s)
Visibility: 6 or more miles (10+ km)
Ceiling: ceiling and visibility are OK
Clouds: unknown
Weather: no significant weather observed at this time

METAR text: UNTT 180530Z 21007MPS CAVOK M03/M10 Q1001 R21/490137 NOSIG RMK QFE736
Conditions at: UNTT (PLOTNIKOVO/TOMSK, RU) observed 0530 UTC 18 February 2019
Temperature: -3.0°C (27°F)
Dewpoint: -10.0°C (14°F) [RH = 58%]
Pressure (altimeter): 29.56 inches Hg (1001.0 mb)
Winds: from the SSW (210 degrees) at 16 MPH (14 knots; 7.2 m/s)
Visibility: 6 or more miles (10+ km)
Ceiling: ceiling and visibility are OK
Clouds: unknown
Weather: no significant weather observed at this time

METAR text: UNTT 180500Z 21006MPS CAVOK M03/M10 Q1001 R21/490137 NOSIG RMK QFE736
Conditions at: UNTT (PLOTNIKOVO/TOMSK, RU) observed 0500 UTC 18 February 2019
Temperature: -3.0°C (27°F)
Dewpoint: -10.0°C (14°F) [RH = 58%]
Pressure (altimeter): 29.56 inches Hg (1001.0 mb)
Winds: from the SSW (210 degrees) at 14 MPH (12 knots; 6.2 m/s)
Visibility: 6 or more miles (10+ km)
Ceiling: ceiling and visibility are OK
Clouds: unknown
Weather: no significant weather observed at this time

METAR text: UNTT 180430Z 21006MPS CAVOK M03/M10 Q1002 R21/490137 NOSIG RMK QFE736
Conditions at: UNTT (PLOTNIKOVO/TOMSK, RU) observed 0430 UTC 18 February 2019
Temperature: -3.0°C (27°F)
Dewpoint: -10.0°C (14°F) [RH = 58%]
Pressure (altimeter): 29.59 inches Hg (1002.0 mb)
Winds: from the SSW (210 degrees) at 14 MPH (12 knots; 6.2 m/s)
Visibility: 6 or more miles (10+ km)
Ceiling: ceiling and visibility are OK
Clouds: unknown
Weather: no significant weather observed at this time

METAR text: UNTT 180400Z 22006MPS CAVOK M03/M11 Q1002 R21/490137 NOSIG RMK QFE737
Conditions at: UNTT (PLOTNIKOVO/TOMSK, RU) observed 0400 UTC 18 February 2019
Temperature: -3.0°C (27°F)
Dewpoint: -11.0°C (12°F) [RH = 54%]
Pressure (altimeter): 29.59 inches Hg (1002.0 mb)
Winds: from the SW (220 degrees) at 14 MPH (12 knots; 6.2 m/s)
Visibility: 6 or more miles (10+ km)
Ceiling: ceiling and visibility are OK
Clouds: unknown
Weather: no significant weather observed at this time

METAR text: UNTT 180330Z 21006MPS CAVOK M03/M11 Q1002 R21/490137 NOSIG RMK QFE736
Conditions at: UNTT (PLOTNIKOVO/TOMSK, RU) observed 0330 UTC 18 February 2019
Temperature: -3.0°C (27°F)
Dewpoint: -11.0°C (12°F) [RH = 54%]
Pressure (altimeter): 29.59 inches Hg (1002.0 mb)
Winds: from the SSW (210 degrees) at 14 MPH (12 knots; 6.2 m/s)
Visibility: 6 or more miles (10+ km)
Ceiling: ceiling and visibility are OK
Clouds: unknown
Weather: no significant weather observed at this time

METAR text: UNTT 180300Z 20004MPS CAVOK M03/M11 Q1002 R21/490137 NOSIG RMK QFE737
Conditions at: UNTT (PLOTNIKOVO/TOMSK, RU) observed 0300 UTC 18 February 2019
Temperature: -3.0°C (27°F)
Dewpoint: -11.0°C (12°F) [RH = 54%]
Pressure (altimeter): 29.59 inches Hg (1002.0 mb)
Winds: from the SSW (200 degrees) at 9 MPH (8 knots; 4.1 m/s)
Visibility: 6 or more miles (10+ km)
Ceiling: ceiling and visibility are OK
Clouds: unknown
Weather: no significant weather observed at this time

METAR text: UNTT 180230Z 21006MPS CAVOK M03/M11 Q1002 R21/490137 NOSIG RMK QFE737
Conditions at: UNTT (PLOTNIKOVO/TOMSK, RU) observed 0230 UTC 18 February 2019
Temperature: -3.0°C (27°F)
Dewpoint: -11.0°C (12°F) [RH = 54%]
Pressure (altimeter): 29.59 inches Hg (1002.0 mb)
Winds: from the SSW (210 degrees) at 14 MPH (12 knots; 6.2 m/s)
Visibility: 6 or more miles (10+ km)
Ceiling: ceiling and visibility are OK
Clouds: unknown
Weather: no significant weather observed at this time

METAR text: UNTT 180200Z 20006MPS CAVOK M03/M11 Q1002 R21/490137 NOSIG RMK QFE736
Conditions at: UNTT (PLOTNIKOVO/TOMSK, RU) observed 0200 UTC 18 February 2019
Temperature: -3.0°C (27°F)
Dewpoint: -11.0°C (12°F) [RH = 54%]
Pressure (altimeter): 29.59 inches Hg (1002.0 mb)
Winds: from the SSW (200 degrees) at 14 MPH (12 knots; 6.2 m/s)
Visibility: 6 or more miles (10+ km)
Ceiling: ceiling and visibility are OK
Clouds: unknown
Weather: no significant weather observed at this time

METAR text: UNTT 180130Z 20006MPS CAVOK M03/M11 Q1002 R21/490137 NOSIG RMK QFE736
Conditions at: UNTT (PLOTNIKOVO/TOMSK, RU) observed 0130 UTC 18 February 2019
Temperature: -3.0°C (27°F)
Dewpoint: -11.0°C (12°F) [RH = 54%]
Pressure (altimeter): 29.59 inches Hg (1002.0 mb)
Winds: from the SSW (200 degrees) at 14 MPH (12 knots; 6.2 m/s)
Visibility: 6 or more miles (10+ km)
Ceiling: ceiling and visibility are OK
Clouds: unknown
Weather: no significant weather observed at this time

METAR text: UNTT 180100Z 20006MPS CAVOK M03/M11 Q1002 R21/490137 NOSIG RMK QFE736
Conditions at: UNTT (PLOTNIKOVO/TOMSK, RU) observed 0100 UTC 18 February 2019
Temperature: -3.0°C (27°F)
Dewpoint: -11.0°C (12°F) [RH = 54%]
Pressure (altimeter): 29.59 inches Hg (1002.0 mb)
Winds: from the SSW (200 degrees) at 14 MPH (12 knots; 6.2 m/s)
Visibility: 6 or more miles (10+ km)
Ceiling: ceiling and visibility are OK
Clouds: unknown
Weather: no significant weather observed at this time

METAR text: UNTT 180030Z 20007MPS CAVOK M03/M11 Q1002 R21/490137 NOSIG RMK QFE736
Conditions at: UNTT (PLOTNIKOVO/TOMSK, RU) observed 0030 UTC 18 February 2019
Temperature: -3.0°C (27°F)
Dewpoint: -11.0°C (12°F) [RH = 54%]
Pressure (altimeter): 29.59 inches Hg (1002.0 mb)
Winds: from the SSW (200 degrees) at 16 MPH (14 knots; 7.2 m/s)
Visibility: 6 or more miles (10+ km)
Ceiling: ceiling and visibility are OK
Clouds: unknown
Weather: no significant weather observed at this time

METAR text: UNTT 180000Z 20007MPS CAVOK M03/M10 Q1002 R21/490137 NOSIG RMK QFE736
Conditions at: UNTT (PLOTNIKOVO/TOMSK, RU) observed 0000 UTC 18 February 2019
Temperature: -3.0°C (27°F)
Dewpoint: -10.0°C (14°F) [RH = 58%]
Pressure (altimeter): 29.59 inches Hg (1002.0 mb)
Winds: from the SSW (200 degrees) at 16 MPH (14 knots; 7.2 m/s)
Visibility: 6 or more miles (10+ km)
Ceiling: ceiling and visibility are OK
Clouds: unknown
Weather: no significant weather observed at this time

METAR text: UNTT 172330Z 19006MPS CAVOK M03/M10 Q1002 R21/490137 NOSIG RMK QFE737
Conditions at: UNTT (PLOTNIKOVO/TOMSK, RU) observed 2330 UTC 17 February 2019
Temperature: -3.0°C (27°F)
Dewpoint: -10.0°C (14°F) [RH = 58%]
Pressure (altimeter): 29.59 inches Hg (1002.0 mb)
Winds: from the S (190 degrees) at 14 MPH (12 knots; 6.2 m/s)
Visibility: 6 or more miles (10+ km)
Ceiling: ceiling and visibility are OK
Clouds: unknown
Weather: no significant weather observed at this time

METAR text: UNTT 172300Z 20006MPS CAVOK M03/M10 Q1002 R21/490137 NOSIG RMK QFE737
Conditions at: UNTT (PLOTNIKOVO/TOMSK, RU) observed 2300 UTC 17 February 2019
Temperature: -3.0°C (27°F)
Dewpoint: -10.0°C (14°F) [RH = 58%]
Pressure (altimeter): 29.59 inches Hg (1002.0 mb)
Winds: from the SSW (200 degrees) at 14 MPH (12 knots; 6.2 m/s)
Visibility: 6 or more miles (10+ km)
Ceiling: ceiling and visibility are OK
Clouds: unknown
Weather: no significant weather observed at this time

METAR text: UNTT 172230Z 20007MPS CAVOK M03/M10 Q1002 R21/490137 NOSIG RMK QFE737
Conditions at: UNTT (PLOTNIKOVO/TOMSK, RU) observed 2230 UTC 17 February 2019
Temperature: -3.0°C (27°F)
Dewpoint: -10.0°C (14°F) [RH = 58%]
Pressure (altimeter): 29.59 inches Hg (1002.0 mb)
Winds: from the SSW (200 degrees) at 16 MPH (14 knots; 7.2 m/s)
Visibility: 6 or more miles (10+ km)
Ceiling: ceiling and visibility are OK
Clouds: unknown
Weather: no significant weather observed at this time

METAR text: UNTT 172200Z 20007MPS CAVOK M03/M11 Q1002 R21/490137 NOSIG RMK QFE737
Conditions at: UNTT (PLOTNIKOVO/TOMSK, RU) observed 2200 UTC 17 February 2019
Temperature: -3.0°C (27°F)
Dewpoint: -11.0°C (12°F) [RH = 54%]
Pressure (altimeter): 29.59 inches Hg (1002.0 mb)
Winds: from the SSW (200 degrees) at 16 MPH (14 knots; 7.2 m/s)
Visibility: 6 or more miles (10+ km)
Ceiling: ceiling and visibility are OK
Clouds: unknown
Weather: no significant weather observed at this time

METAR text: UNTT 172130Z 20007MPS CAVOK M03/M10 Q1002 R21/490137 NOSIG RMK QFE737
Conditions at: UNTT (PLOTNIKOVO/TOMSK, RU) observed 2130 UTC 17 February 2019
Temperature: -3.0°C (27°F)
Dewpoint: -10.0°C (14°F) [RH = 58%]
Pressure (altimeter): 29.59 inches Hg (1002.0 mb)
Winds: from the SSW (200 degrees) at 16 MPH (14 knots; 7.2 m/s)
Visibility: 6 or more miles (10+ km)
Ceiling: ceiling and visibility are OK
Clouds: unknown
Weather: no significant weather observed at this time

METAR text: UNTT 172100Z 20007MPS CAVOK M03/M10 Q1003 NOSIG RMK QFE737
Conditions at: UNTT (PLOTNIKOVO/TOMSK, RU) observed 2100 UTC 17 February 2019
Temperature: -3.0°C (27°F)
Dewpoint: -10.0°C (14°F) [RH = 58%]
Pressure (altimeter): 29.62 inches Hg (1003.0 mb)
Winds: from the SSW (200 degrees) at 16 MPH (14 knots; 7.2 m/s)
Visibility: 6 or more miles (10+ km)
Ceiling: ceiling and visibility are OK
Clouds: unknown
Weather: no significant weather observed at this time

METAR text: UNTT 172030Z 20007MPS CAVOK M02/M10 Q1003 NOSIG RMK QFE737
Conditions at: UNTT (PLOTNIKOVO/TOMSK, RU) observed 2030 UTC 17 February 2019
Temperature: -2.0°C (28°F)
Dewpoint: -10.0°C (14°F) [RH = 54%]
Pressure (altimeter): 29.62 inches Hg (1003.0 mb)
Winds: from the SSW (200 degrees) at 16 MPH (14 knots; 7.2 m/s)
Visibility: 6 or more miles (10+ km)
Ceiling: ceiling and visibility are OK
Clouds: unknown
Weather: no significant weather observed at this time

METAR text: UNTT 172000Z 20007MPS CAVOK M03/M10 Q1003 NOSIG RMK QFE737
Conditions at: UNTT (PLOTNIKOVO/TOMSK, RU) observed 2000 UTC 17 February 2019
Temperature: -3.0°C (27°F)
Dewpoint: -10.0°C (14°F) [RH = 58%]
Pressure (altimeter): 29.62 inches Hg (1003.0 mb)
Winds: from the SSW (200 degrees) at 16 MPH (14 knots; 7.2 m/s)
Visibility: 6 or more miles (10+ km)
Ceiling: ceiling and visibility are OK
Clouds: unknown
Weather: no significant weather observed at this time

METAR text: UNTT 171900Z 20007MPS CAVOK M02/M10 Q1003 NOSIG RMK QFE737
Conditions at: UNTT (PLOTNIKOVO/TOMSK, RU) observed 1900 UTC 17 February 2019
Temperature: -2.0°C (28°F)
Dewpoint: -10.0°C (14°F) [RH = 54%]
Pressure (altimeter): 29.62 inches Hg (1003.0 mb)
Winds: from the SSW (200 degrees) at 16 MPH (14 knots; 7.2 m/s)
Visibility: 6 or more miles (10+ km)
Ceiling: ceiling and visibility are OK
Clouds: unknown
Weather: no significant weather observed at this time

METAR text: UNTT 171800Z 20007MPS CAVOK M02/M09 Q1003 NOSIG RMK QFE738
Conditions at: UNTT (PLOTNIKOVO/TOMSK, RU) observed 1800 UTC 17 February 2019
Temperature: -2.0°C (28°F)
Dewpoint: -9.0°C (16°F) [RH = 59%]
Pressure (altimeter): 29.62 inches Hg (1003.0 mb)
Winds: from the SSW (200 degrees) at 16 MPH (14 knots; 7.2 m/s)
Visibility: 6 or more miles (10+ km)
Ceiling: ceiling and visibility are OK
Clouds: unknown
Weather: no significant weather observed at this time

METAR text: UNTT 171700Z 20008MPS CAVOK M02/M09 Q1004 NOSIG RMK QFE738
Conditions at: UNTT (PLOTNIKOVO/TOMSK, RU) observed 1700 UTC 17 February 2019
Temperature: -2.0°C (28°F)
Dewpoint: -9.0°C (16°F) [RH = 59%]
Pressure (altimeter): 29.65 inches Hg (1004.0 mb)
Winds: from the SSW (200 degrees) at 18 MPH (16 knots; 8.2 m/s)
Visibility: 6 or more miles (10+ km)
Ceiling: ceiling and visibility are OK
Clouds: unknown
Weather: no significant weather observed at this time

Forecast for: UNTT (PLOTNIKOVO/TOMSK, RU)
Text: TAF UNTT 190200Z 1903/1912 22007G15MPS 5000 -SHSN DRSN SCT011 BKN020CB
Forecast period: 0300 to 1200 UTC 19 February 2019
Forecast type: FROM: standard forecast or significant change
Winds: from the SW (220 degrees) at 16 MPH (14 knots; 7.2 m/s)
gusting to 33 MPH (29 knots; 14.9 m/s)
Visibility: 3 miles (5 km)
Ceiling: 2000 feet AGL
Clouds: scattered clouds at 1100 feet AGL
broken clouds at 2000 feet AGL
Weather: -SHSN DRSN  (light snow showers, low drifting snow)
Text: TEMPO 1903/1906 1500 SHSN DRSN BKN005 BKN011CB
Forecast period: 0300 to 0600 UTC 19 February 2019
Forecast type: TEMPORARY: The following changes expected for less than half the time period
Visibility: 0.93 miles (1.50 km)
Ceiling: 500 feet AGL
Clouds: broken clouds at 500 feet AGL
broken clouds at 1100 feet AGL
Weather: SHSN DRSN  (snow showers, low drifting snow)
Text: TEMPO 1906/1912 18005G10MPS 3100 -SHSN FEW005 BKN011CB
Forecast period: 0600 to 1200 UTC 19 February 2019
Forecast type: TEMPORARY: The following changes expected for less than half the time period
Winds: from the S (180 degrees) at 12 MPH (10 knots; 5.1 m/s)
gusting to 22 MPH (19 knots; 9.8 m/s)
Visibility: 1.93 miles (3.11 km)
Ceiling: 1100 feet AGL
Clouds: few clouds at 500 feet AGL
broken clouds at 1100 feet AGL
Weather: -SHSN  (light snow showers)